Current Weather

Joliet Rgnl

Joliet, Illinois (KJOT)

Report from: Wednesday, August 17, 2022 8:15 PM CDT
Current time: Wednesday, August 17, 2022 8:29 PM CDT

Nearby weather
Weather history
Weather forecast

Temperature21.5°C (70.7°F)
Dew point14.7°C (58.5°F)
Winds 3 kts (1.5 m/s, 3.5 mph) East (90°)
Visibility10 mi. (16.1 km)
Clouds Sky clear
Altimeter30.07 in.Hg (1018 mB)
Relative humidity65 %
Density altitude821 ft. (250 m)
Remarks Fully automated report
Automated weather observing station with precipitation discriminator
Flight conditions Visual Meteorological Conditions
Raw dataKJOT 180115Z AUTO 09003KT 10SM CLR 22/15 A3007 RMK AO2 T02150147
An error has occurred. This application may no longer respond until reloaded. Reload 🗙